Hovedside
METAR-TAF:

METAR-TAF

Lufthavner :

Ushuaia, Argentina

breddegrad: 54-48S, lengdegrad: 068-19W, høyde over havet: 16 m

Gjeldene værobservasjon

Denne rapporten ble laget for 54 minutter siden, klokken 17:00 UTC
Vind 21 kt fra Sørvest
Temperatur 6°C
Luftfuktighet 49%
Trykk 1017 hPa
Sikt 10 km eller mer
Brutte skyer i en høyde av 4500 ft

METAR: SAWH 211700Z 23021KT 9999 BKN045 06/M04 Q1017

Tid: 14:54 (17:54 UTC)

Varsel

Denne rapporten ble laget for 12 timer og 54 minutter siden, klokken 05:00 UTC
Varsel gyldig fra 21. klokken 06 UTC til 22. klokken 06 UTC
Vind 15 kt fra Sør-sørvest
Sikt 10 km eller mer
Brutte skyer i en høyde av 2500 ft
Overskyet i en høyde av 5000 ft
lett regn, snø
Blir
fra 21. klokken 13 UTC til 21. klokken 15 UTC
Vind 10 kt fra Sørvest
Spredte skyer i en høyde av 3000 ft

TAF: SAWH 210500Z 2106/2206 20015KT 9999 -RASN BKN025 OVC050 TX07/2118Z TN00/2110Z BECMG 2113/2115 23010KT NSW SCT030

Værobservasjoner og værvarsel for over 4000 flyplasser (METAR- og TAF-rapporter).

Tilgjengelige stasjoner er representert av de røde og gule prikkene på kartet.

Hold musepekeren over prikken for å se navnet på stasjonen.

Klikk så for å se værobservasjoner og -varsler.

For å forandre kartet kan du klikke på den grønne knappen med svart kryss for å zoome inn, på den grønne knappen med strek for å zoome ut, eller på de grønne pilene for å se tilstøtende kart.


METAR-TAF: